sensor_id;sensor_type;location;lat;lon;timestamp;P1;durP1;ratioP1;P2;durP2;ratioP2
35909;SDS011;22004;49.120;-0.200;2022-08-21T00:01:19;9.45;;;2.53;;
35909;SDS011;22004;49.120;-0.200;2022-08-21T00:03:47;9.25;;;2.28;;
35909;SDS011;22004;49.120;-0.200;2022-08-21T00:06:13;7.80;;;2.40;;
35909;SDS011;22004;49.120;-0.200;2022-08-21T00:08:39;7.72;;;2.47;;
35909;SDS011;22004;49.120;-0.200;2022-08-21T00:11:06;7.43;;;2.40;;
35909;SDS011;22004;49.120;-0.200;2022-08-21T00:13:31;9.32;;;2.20;;
35909;SDS011;22004;49.120;-0.200;2022-08-21T00:15:58;7.78;;;2.30;;
35909;SDS011;22004;49.120;-0.200;2022-08-21T00:18:24;5.32;;;1.77;;
35909;SDS011;22004;49.120;-0.200;2022-08-21T00:20:49;13.23;;;2.35;;
35909;SDS011;22004;49.120;-0.200;2022-08-21T00:23:16;10.65;;;2.40;;
35909;SDS011;22004;49.120;-0.200;2022-08-21T00:25:42;4.22;;;2.20;;
35909;SDS011;22004;49.120;-0.200;2022-08-21T00:28:09;7.97;;;2.38;;
35909;SDS011;22004;49.120;-0.200;2022-08-21T00:30:35;7.72;;;2.25;;
35909;SDS011;22004;49.120;-0.200;2022-08-21T00:33:01;6.97;;;2.28;;
35909;SDS011;22004;49.120;-0.200;2022-08-21T00:35:28;8.73;;;2.35;;
35909;SDS011;22004;49.120;-0.200;2022-08-21T00:37:57;7.75;;;2.08;;
35909;SDS011;22004;49.120;-0.200;2022-08-21T00:40:25;8.18;;;2.35;;
35909;SDS011;22004;49.120;-0.200;2022-08-21T00:42:52;6.35;;;2.28;;
35909;SDS011;22004;49.120;-0.200;2022-08-21T00:45:18;8.68;;;2.20;;
35909;SDS011;22004;49.120;-0.200;2022-08-21T00:47:43;6.97;;;2.35;;
35909;SDS011;22004;49.120;-0.200;2022-08-21T00:50:10;7.97;;;2.20;;
35909;SDS011;22004;49.120;-0.200;2022-08-21T00:52:36;8.38;;;2.47;;
35909;SDS011;22004;49.120;-0.200;2022-08-21T00:55:03;7.43;;;2.05;;
35909;SDS011;22004;49.120;-0.200;2022-08-21T00:57:34;6.30;;;2.17;;
35909;SDS011;22004;49.120;-0.200;2022-08-21T01:00:05;8.25;;;2.53;;
35909;SDS011;22004;49.120;-0.200;2022-08-21T01:02:33;6.63;;;2.00;;
35909;SDS011;22004;49.120;-0.200;2022-08-21T01:04:58;6.68;;;2.17;;
35909;SDS011;22004;49.120;-0.200;2022-08-21T01:07:24;10.90;;;2.35;;
35909;SDS011;22004;49.120;-0.200;2022-08-21T01:09:50;6.43;;;2.10;;
35909;SDS011;22004;49.120;-0.200;2022-08-21T01:12:16;7.13;;;1.88;;
35909;SDS011;22004;49.120;-0.200;2022-08-21T01:14:42;7.03;;;2.30;;
35909;SDS011;22004;49.120;-0.200;2022-08-21T01:17:09;6.43;;;2.08;;
35909;SDS011;22004;49.120;-0.200;2022-08-21T01:19:38;7.45;;;1.88;;
35909;SDS011;22004;49.120;-0.200;2022-08-21T01:22:04;9.02;;;2.15;;
35909;SDS011;22004;49.120;-0.200;2022-08-21T01:24:29;6.28;;;2.00;;
35909;SDS011;22004;49.120;-0.200;2022-08-21T01:26:56;9.80;;;2.55;;
35909;SDS011;22004;49.120;-0.200;2022-08-21T01:29:28;7.53;;;2.05;;
35909;SDS011;22004;49.120;-0.200;2022-08-21T01:31:55;8.50;;;2.50;;
35909;SDS011;22004;49.120;-0.200;2022-08-21T01:34:20;8.77;;;2.35;;
35909;SDS011;22004;49.120;-0.200;2022-08-21T01:36:46;7.07;;;2.08;;
35909;SDS011;22004;49.120;-0.200;2022-08-21T01:39:11;8.57;;;2.60;;
35909;SDS011;22004;49.120;-0.200;2022-08-21T01:41:37;7.57;;;2.08;;
35909;SDS011;22004;49.120;-0.200;2022-08-21T01:44:03;6.30;;;2.15;;
35909;SDS011;22004;49.120;-0.200;2022-08-21T01:46:29;6.93;;;2.08;;
35909;SDS011;22004;49.120;-0.200;2022-08-21T01:48:54;5.70;;;2.00;;
35909;SDS011;22004;49.120;-0.200;2022-08-21T01:51:19;6.53;;;2.20;;
35909;SDS011;22004;49.120;-0.200;2022-08-21T01:53:45;10.35;;;2.40;;
35909;SDS011;22004;49.120;-0.200;2022-08-21T01:56:12;8.40;;;2.67;;
35909;SDS011;22004;49.120;-0.200;2022-08-21T01:58:39;6.90;;;2.10;;
35909;SDS011;22004;49.120;-0.200;2022-08-21T02:01:06;7.32;;;2.30;;
35909;SDS011;22004;49.120;-0.200;2022-08-21T02:03:31;7.00;;;2.42;;
35909;SDS011;22004;49.120;-0.200;2022-08-21T02:05:57;8.30;;;2.45;;
35909;SDS011;22004;49.120;-0.200;2022-08-21T02:08:23;7.50;;;2.50;;
35909;SDS011;22004;49.120;-0.200;2022-08-21T02:10:49;7.25;;;2.25;;
35909;SDS011;22004;49.120;-0.200;2022-08-21T02:13:15;6.82;;;3.03;;
35909;SDS011;22004;49.120;-0.200;2022-08-21T02:15:41;5.53;;;1.90;;
35909;SDS011;22004;49.120;-0.200;2022-08-21T02:18:07;8.90;;;2.28;;
35909;SDS011;22004;49.120;-0.200;2022-08-21T02:20:37;5.68;;;1.98;;
35909;SDS011;22004;49.120;-0.200;2022-08-21T02:23:07;11.23;;;2.60;;
35909;SDS011;22004;49.120;-0.200;2022-08-21T02:25:34;7.07;;;2.50;;
35909;SDS011;22004;49.120;-0.200;2022-08-21T02:28:02;8.00;;;2.45;;
35909;SDS011;22004;49.120;-0.200;2022-08-21T02:30:31;7.68;;;2.20;;
35909;SDS011;22004;49.120;-0.200;2022-08-21T02:32:59;10.65;;;2.65;;
35909;SDS011;22004;49.120;-0.200;2022-08-21T02:35:25;8.32;;;2.28;;
35909;SDS011;22004;49.120;-0.200;2022-08-21T02:40:17;6.22;;;2.00;;
35909;SDS011;22004;49.120;-0.200;2022-08-21T02:42:44;11.18;;;2.47;;
35909;SDS011;22004;49.120;-0.200;2022-08-21T02:45:10;6.80;;;2.50;;
35909;SDS011;22004;49.120;-0.200;2022-08-21T02:47:37;5.53;;;2.20;;
35909;SDS011;22004;49.120;-0.200;2022-08-21T02:50:03;8.52;;;2.40;;
35909;SDS011;22004;49.120;-0.200;2022-08-21T02:52:29;6.32;;;2.00;;
35909;SDS011;22004;49.120;-0.200;2022-08-21T02:54:54;5.60;;;2.03;;
35909;SDS011;22004;49.120;-0.200;2022-08-21T02:57:20;6.25;;;1.77;;
35909;SDS011;22004;49.120;-0.200;2022-08-21T02:59:45;3.13;;;1.60;;
35909;SDS011;22004;49.120;-0.200;2022-08-21T03:02:11;6.78;;;2.28;;
35909;SDS011;22004;49.120;-0.200;2022-08-21T03:04:37;5.85;;;2.28;;
35909;SDS011;22004;49.120;-0.200;2022-08-21T03:07:02;6.32;;;1.83;;
35909;SDS011;22004;49.120;-0.200;2022-08-21T03:09:28;4.85;;;2.08;;
35909;SDS011;22004;49.120;-0.200;2022-08-21T03:11:53;6.13;;;2.28;;
35909;SDS011;22004;49.120;-0.200;2022-08-21T03:14:18;6.15;;;2.08;;
35909;SDS011;22004;49.120;-0.200;2022-08-21T03:16:44;6.53;;;2.10;;
35909;SDS011;22004;49.120;-0.200;2022-08-21T03:19:09;6.97;;;2.72;;
35909;SDS011;22004;49.120;-0.200;2022-08-21T03:21:35;4.97;;;1.90;;
35909;SDS011;22004;49.120;-0.200;2022-08-21T03:24:00;5.15;;;2.00;;
35909;SDS011;22004;49.120;-0.200;2022-08-21T03:26:26;5.05;;;1.85;;
35909;SDS011;22004;49.120;-0.200;2022-08-21T03:28:51;7.18;;;2.30;;
35909;SDS011;22004;49.120;-0.200;2022-08-21T03:31:17;7.68;;;1.98;;
35909;SDS011;22004;49.120;-0.200;2022-08-21T03:33:43;8.88;;;2.28;;
35909;SDS011;22004;49.120;-0.200;2022-08-21T03:36:09;7.22;;;2.15;;
35909;SDS011;22004;49.120;-0.200;2022-08-21T03:38:35;6.45;;;1.83;;
35909;SDS011;22004;49.120;-0.200;2022-08-21T03:41:03;6.25;;;2.00;;
35909;SDS011;22004;49.120;-0.200;2022-08-21T03:43:28;6.82;;;2.33;;
35909;SDS011;22004;49.120;-0.200;2022-08-21T03:45:54;3.92;;;2.10;;
35909;SDS011;22004;49.120;-0.200;2022-08-21T03:48:20;5.80;;;2.30;;
35909;SDS011;22004;49.120;-0.200;2022-08-21T03:50:45;5.15;;;2.08;;
35909;SDS011;22004;49.120;-0.200;2022-08-21T03:53:12;7.55;;;3.05;;
35909;SDS011;22004;49.120;-0.200;2022-08-21T03:55:39;6.60;;;2.20;;
35909;SDS011;22004;49.120;-0.200;2022-08-21T03:58:05;5.10;;;2.08;;
35909;SDS011;22004;49.120;-0.200;2022-08-21T04:00:30;9.30;;;2.50;;
35909;SDS011;22004;49.120;-0.200;2022-08-21T04:02:56;7.22;;;2.10;;
35909;SDS011;22004;49.120;-0.200;2022-08-21T04:05:22;5.85;;;2.20;;
35909;SDS011;22004;49.120;-0.200;2022-08-21T04:07:58;6.22;;;2.03;;
35909;SDS011;22004;49.120;-0.200;2022-08-21T04:10:26;6.53;;;2.20;;
35909;SDS011;22004;49.120;-0.200;2022-08-21T04:12:54;4.65;;;1.92;;
35909;SDS011;22004;49.120;-0.200;2022-08-21T04:15:20;5.35;;;2.28;;
35909;SDS011;22004;49.120;-0.200;2022-08-21T04:17:47;4.47;;;2.17;;
35909;SDS011;22004;49.120;-0.200;2022-08-21T04:20:13;7.68;;;2.55;;
35909;SDS011;22004;49.120;-0.200;2022-08-21T04:22:40;6.00;;;2.10;;
35909;SDS011;22004;49.120;-0.200;2022-08-21T04:25:06;5.05;;;1.90;;
35909;SDS011;22004;49.120;-0.200;2022-08-21T04:27:32;6.18;;;2.10;;
35909;SDS011;22004;49.120;-0.200;2022-08-21T04:29:58;6.63;;;2.10;;
35909;SDS011;22004;49.120;-0.200;2022-08-21T04:32:25;7.63;;;2.42;;
35909;SDS011;22004;49.120;-0.200;2022-08-21T04:34:57;7.70;;;2.22;;
35909;SDS011;22004;49.120;-0.200;2022-08-21T04:37:26;10.00;;;2.58;;
35909;SDS011;22004;49.120;-0.200;2022-08-21T04:39:52;7.20;;;2.35;;
35909;SDS011;22004;49.120;-0.200;2022-08-21T04:42:17;8.88;;;2.45;;
35909;SDS011;22004;49.120;-0.200;2022-08-21T04:44:43;7.13;;;1.80;;
35909;SDS011;22004;49.120;-0.200;2022-08-21T04:47:08;5.90;;;2.20;;
35909;SDS011;22004;49.120;-0.200;2022-08-21T04:49:33;10.02;;;2.80;;
35909;SDS011;22004;49.120;-0.200;2022-08-21T04:51:59;10.25;;;2.80;;
35909;SDS011;22004;49.120;-0.200;2022-08-21T04:54:25;8.60;;;2.30;;
35909;SDS011;22004;49.120;-0.200;2022-08-21T04:56:52;5.50;;;2.20;;
35909;SDS011;22004;49.120;-0.200;2022-08-21T04:59:26;6.28;;;2.35;;
35909;SDS011;22004;49.120;-0.200;2022-08-21T05:01:55;7.85;;;2.20;;
35909;SDS011;22004;49.120;-0.200;2022-08-21T05:04:23;7.88;;;2.47;;
35909;SDS011;22004;49.120;-0.200;2022-08-21T05:06:51;6.60;;;2.40;;
35909;SDS011;22004;49.120;-0.200;2022-08-21T05:09:19;8.95;;;2.25;;
35909;SDS011;22004;49.120;-0.200;2022-08-21T05:11:46;7.25;;;2.20;;
35909;SDS011;22004;49.120;-0.200;2022-08-21T05:14:13;5.60;;;2.40;;
35909;SDS011;22004;49.120;-0.200;2022-08-21T05:16:39;5.93;;;2.13;;
35909;SDS011;22004;49.120;-0.200;2022-08-21T05:19:07;6.15;;;2.50;;
35909;SDS011;22004;49.120;-0.200;2022-08-21T05:21:37;6.60;;;1.80;;
35909;SDS011;22004;49.120;-0.200;2022-08-21T05:24:05;8.25;;;2.28;;
35909;SDS011;22004;49.120;-0.200;2022-08-21T05:26:31;5.30;;;1.73;;
35909;SDS011;22004;49.120;-0.200;2022-08-21T05:28:57;10.13;;;2.75;;
35909;SDS011;22004;49.120;-0.200;2022-08-21T05:31:22;9.10;;;2.53;;
35909;SDS011;22004;49.120;-0.200;2022-08-21T05:33:47;4.25;;;2.03;;
35909;SDS011;22004;49.120;-0.200;2022-08-21T05:36:13;7.03;;;2.40;;
35909;SDS011;22004;49.120;-0.200;2022-08-21T05:38:38;7.03;;;2.30;;
35909;SDS011;22004;49.120;-0.200;2022-08-21T05:41:04;9.82;;;2.55;;
35909;SDS011;22004;49.120;-0.200;2022-08-21T05:43:29;6.70;;;2.47;;
35909;SDS011;22004;49.120;-0.200;2022-08-21T05:45:54;6.72;;;2.10;;
35909;SDS011;22004;49.120;-0.200;2022-08-21T05:48:21;9.93;;;2.60;;
35909;SDS011;22004;49.120;-0.200;2022-08-21T05:50:49;5.05;;;2.17;;
35909;SDS011;22004;49.120;-0.200;2022-08-21T05:53:17;7.55;;;2.50;;
35909;SDS011;22004;49.120;-0.200;2022-08-21T05:55:44;8.82;;;2.67;;
35909;SDS011;22004;49.120;-0.200;2022-08-21T05:58:10;6.40;;;2.35;;
35909;SDS011;22004;49.120;-0.200;2022-08-21T06:00:36;7.00;;;2.30;;
35909;SDS011;22004;49.120;-0.200;2022-08-21T06:03:01;10.07;;;2.67;;
35909;SDS011;22004;49.120;-0.200;2022-08-21T06:05:27;13.75;;;2.78;;
35909;SDS011;22004;49.120;-0.200;2022-08-21T06:07:52;5.22;;;2.53;;
35909;SDS011;22004;49.120;-0.200;2022-08-21T06:10:18;9.43;;;2.88;;
35909;SDS011;22004;49.120;-0.200;2022-08-21T06:12:43;7.60;;;2.40;;
35909;SDS011;22004;49.120;-0.200;2022-08-21T06:15:09;7.47;;;2.40;;
35909;SDS011;22004;49.120;-0.200;2022-08-21T06:17:36;6.57;;;1.90;;
35909;SDS011;22004;49.120;-0.200;2022-08-21T06:20:01;7.38;;;2.65;;
35909;SDS011;22004;49.120;-0.200;2022-08-21T06:22:27;8.27;;;2.85;;
35909;SDS011;22004;49.120;-0.200;2022-08-21T06:24:54;8.00;;;2.22;;
35909;SDS011;22004;49.120;-0.200;2022-08-21T06:27:19;9.50;;;2.70;;
35909;SDS011;22004;49.120;-0.200;2022-08-21T06:29:44;10.38;;;2.80;;
35909;SDS011;22004;49.120;-0.200;2022-08-21T06:32:10;6.03;;;2.53;;
35909;SDS011;22004;49.120;-0.200;2022-08-21T06:34:37;8.20;;;2.72;;
35909;SDS011;22004;49.120;-0.200;2022-08-21T06:37:04;7.30;;;2.38;;
35909;SDS011;22004;49.120;-0.200;2022-08-21T06:39:30;8.43;;;2.30;;
35909;SDS011;22004;49.120;-0.200;2022-08-21T06:41:56;10.68;;;2.95;;
35909;SDS011;22004;49.120;-0.200;2022-08-21T06:44:21;6.97;;;2.72;;
35909;SDS011;22004;49.120;-0.200;2022-08-21T06:46:46;7.10;;;2.42;;
35909;SDS011;22004;49.120;-0.200;2022-08-21T06:49:13;8.27;;;2.58;;
35909;SDS011;22004;49.120;-0.200;2022-08-21T06:51:39;10.93;;;2.85;;
35909;SDS011;22004;49.120;-0.200;2022-08-21T06:54:05;9.45;;;2.67;;
35909;SDS011;22004;49.120;-0.200;2022-08-21T06:56:30;6.35;;;2.45;;
35909;SDS011;22004;49.120;-0.200;2022-08-21T06:58:56;7.95;;;2.83;;
35909;SDS011;22004;49.120;-0.200;2022-08-21T07:01:22;11.43;;;3.00;;
35909;SDS011;22004;49.120;-0.200;2022-08-21T07:03:49;10.77;;;2.88;;
35909;SDS011;22004;49.120;-0.200;2022-08-21T07:06:15;9.10;;;2.42;;
35909;SDS011;22004;49.120;-0.200;2022-08-21T07:08:42;9.35;;;2.50;;
35909;SDS011;22004;49.120;-0.200;2022-08-21T07:11:14;8.75;;;2.85;;
35909;SDS011;22004;49.120;-0.200;2022-08-21T07:13:44;10.55;;;2.38;;
35909;SDS011;22004;49.120;-0.200;2022-08-21T07:16:09;9.73;;;2.15;;
35909;SDS011;22004;49.120;-0.200;2022-08-21T07:18:35;9.63;;;2.22;;
35909;SDS011;22004;49.120;-0.200;2022-08-21T07:21:01;7.40;;;2.50;;
35909;SDS011;22004;49.120;-0.200;2022-08-21T07:23:29;10.35;;;2.90;;
35909;SDS011;22004;49.120;-0.200;2022-08-21T07:25:57;7.13;;;2.25;;
35909;SDS011;22004;49.120;-0.200;2022-08-21T07:28:24;8.98;;;2.63;;
35909;SDS011;22004;49.120;-0.200;2022-08-21T07:30:50;9.85;;;2.60;;
35909;SDS011;22004;49.120;-0.200;2022-08-21T07:33:18;12.07;;;2.60;;
35909;SDS011;22004;49.120;-0.200;2022-08-21T07:35:43;10.50;;;3.13;;
35909;SDS011;22004;49.120;-0.200;2022-08-21T07:38:08;11.27;;;2.55;;
35909;SDS011;22004;49.120;-0.200;2022-08-21T07:40:34;8.60;;;2.30;;
35909;SDS011;22004;49.120;-0.200;2022-08-21T07:42:59;8.60;;;2.67;;
35909;SDS011;22004;49.120;-0.200;2022-08-21T07:45:25;8.93;;;2.78;;
35909;SDS011;22004;49.120;-0.200;2022-08-21T07:47:51;6.88;;;2.38;;
35909;SDS011;22004;49.120;-0.200;2022-08-21T07:50:17;7.00;;;2.42;;
35909;SDS011;22004;49.120;-0.200;2022-08-21T07:52:43;9.38;;;2.88;;
35909;SDS011;22004;49.120;-0.200;2022-08-21T07:55:13;6.13;;;2.10;;
35909;SDS011;22004;49.120;-0.200;2022-08-21T07:57:41;7.35;;;2.60;;
35909;SDS011;22004;49.120;-0.200;2022-08-21T08:00:08;12.10;;;2.42;;
35909;SDS011;22004;49.120;-0.200;2022-08-21T08:02:36;11.93;;;3.13;;
35909;SDS011;22004;49.120;-0.200;2022-08-21T08:05:06;19.70;;;3.20;;
35909;SDS011;22004;49.120;-0.200;2022-08-21T08:07:34;8.00;;;2.40;;
35909;SDS011;22004;49.120;-0.200;2022-08-21T08:10:00;6.07;;;2.00;;
35909;SDS011;22004;49.120;-0.200;2022-08-21T08:12:26;8.13;;;2.35;;
35909;SDS011;22004;49.120;-0.200;2022-08-21T08:14:55;8.07;;;1.88;;
35909;SDS011;22004;49.120;-0.200;2022-08-21T08:17:21;7.10;;;2.30;;
35909;SDS011;22004;49.120;-0.200;2022-08-21T08:19:48;11.02;;;2.30;;
35909;SDS011;22004;49.120;-0.200;2022-08-21T08:22:15;9.25;;;2.15;;
35909;SDS011;22004;49.120;-0.200;2022-08-21T08:24:44;9.70;;;2.97;;
35909;SDS011;22004;49.120;-0.200;2022-08-21T08:27:10;9.13;;;2.05;;
35909;SDS011;22004;49.120;-0.200;2022-08-21T08:29:35;14.48;;;2.97;;
35909;SDS011;22004;49.120;-0.200;2022-08-21T08:32:01;11.70;;;2.90;;
35909;SDS011;22004;49.120;-0.200;2022-08-21T08:34:27;18.02;;;2.90;;
35909;SDS011;22004;49.120;-0.200;2022-08-21T08:36:52;12.20;;;2.83;;
35909;SDS011;22004;49.120;-0.200;2022-08-21T08:39:18;14.52;;;2.85;;
35909;SDS011;22004;49.120;-0.200;2022-08-21T08:41:44;15.23;;;3.45;;
35909;SDS011;22004;49.120;-0.200;2022-08-21T08:44:12;20.90;;;3.67;;
35909;SDS011;22004;49.120;-0.200;2022-08-21T08:46:41;19.20;;;3.47;;
35909;SDS011;22004;49.120;-0.200;2022-08-21T08:49:11;14.13;;;3.25;;
35909;SDS011;22004;49.120;-0.200;2022-08-21T08:55:08;13.07;;;2.97;;
35909;SDS011;22004;49.120;-0.200;2022-08-21T08:57:47;18.05;;;3.10;;
35909;SDS011;22004;49.120;-0.200;2022-08-21T09:00:15;14.93;;;3.08;;
35909;SDS011;22004;49.120;-0.200;2022-08-21T09:02:43;11.43;;;2.75;;
35909;SDS011;22004;49.120;-0.200;2022-08-21T09:05:17;17.75;;;3.03;;
35909;SDS011;22004;49.120;-0.200;2022-08-21T09:07:49;19.45;;;4.07;;
35909;SDS011;22004;49.120;-0.200;2022-08-21T09:10:30;20.83;;;3.30;;
35909;SDS011;22004;49.120;-0.200;2022-08-21T09:22:23;15.23;;;2.85;;
35909;SDS011;22004;49.120;-0.200;2022-08-21T09:27:13;18.85;;;3.22;;
35909;SDS011;22004;49.120;-0.200;2022-08-21T09:29:46;18.75;;;3.53;;
35909;SDS011;22004;49.120;-0.200;2022-08-21T09:32:29;13.55;;;2.85;;
35909;SDS011;22004;49.120;-0.200;2022-08-21T09:34:59;21.60;;;3.20;;
35909;SDS011;22004;49.120;-0.200;2022-08-21T09:37:31;16.85;;;3.55;;
35909;SDS011;22004;49.120;-0.200;2022-08-21T09:40:00;23.08;;;4.18;;
35909;SDS011;22004;49.120;-0.200;2022-08-21T09:42:40;20.15;;;4.00;;
35909;SDS011;22004;49.120;-0.200;2022-08-21T09:45:13;11.77;;;3.40;;
35909;SDS011;22004;49.120;-0.200;2022-08-21T09:47:41;23.58;;;3.42;;
35909;SDS011;22004;49.120;-0.200;2022-08-21T09:50:10;19.05;;;3.17;;
35909;SDS011;22004;49.120;-0.200;2022-08-21T09:52:56;24.90;;;3.75;;
35909;SDS011;22004;49.120;-0.200;2022-08-21T09:58:17;25.10;;;4.18;;
35909;SDS011;22004;49.120;-0.200;2022-08-21T10:00:44;13.57;;;3.30;;
35909;SDS011;22004;49.120;-0.200;2022-08-21T10:03:14;15.00;;;3.15;;
35909;SDS011;22004;49.120;-0.200;2022-08-21T10:08:19;15.73;;;3.67;;
35909;SDS011;22004;49.120;-0.200;2022-08-21T10:10:49;20.85;;;4.45;;
35909;SDS011;22004;49.120;-0.200;2022-08-21T10:13:20;21.55;;;3.92;;
35909;SDS011;22004;49.120;-0.200;2022-08-21T10:18:22;14.57;;;3.60;;
35909;SDS011;22004;49.120;-0.200;2022-08-21T10:21:29;17.83;;;3.17;;
35909;SDS011;22004;49.120;-0.200;2022-08-21T10:24:07;14.68;;;3.15;;
35909;SDS011;22004;49.120;-0.200;2022-08-21T10:26:41;21.00;;;3.58;;
35909;SDS011;22004;49.120;-0.200;2022-08-21T10:55:19;18.77;;;2.97;;
35909;SDS011;22004;49.120;-0.200;2022-08-21T11:00:29;15.88;;;2.67;;
35909;SDS011;22004;49.120;-0.200;2022-08-21T11:03:06;12.32;;;2.75;;
35909;SDS011;22004;49.120;-0.200;2022-08-21T11:08:36;33.60;;;4.35;;
35909;SDS011;22004;49.120;-0.200;2022-08-21T11:11:15;12.55;;;2.67;;
35909;SDS011;22004;49.120;-0.200;2022-08-21T11:14:00;14.82;;;2.85;;
35909;SDS011;22004;49.120;-0.200;2022-08-21T11:16:40;11.95;;;2.50;;
35909;SDS011;22004;49.120;-0.200;2022-08-21T11:27:41;14.27;;;3.28;;
35909;SDS011;22004;49.120;-0.200;2022-08-21T11:29:56;14.25;;;3.60;;
35909;SDS011;22004;49.120;-0.200;2022-08-21T11:32:32;15.18;;;3.58;;
35909;SDS011;22004;49.120;-0.200;2022-08-21T11:46:11;19.48;;;3.17;;
35909;SDS011;22004;49.120;-0.200;2022-08-21T11:51:28;15.65;;;2.95;;
35909;SDS011;22004;49.120;-0.200;2022-08-21T11:56:45;18.48;;;2.90;;
35909;SDS011;22004;49.120;-0.200;2022-08-21T11:59:40;23.10;;;3.88;;
35909;SDS011;22004;49.120;-0.200;2022-08-21T12:02:22;11.52;;;2.67;;
35909;SDS011;22004;49.120;-0.200;2022-08-21T12:04:56;16.65;;;2.78;;
35909;SDS011;22004;49.120;-0.200;2022-08-21T12:07:34;22.13;;;3.55;;
35909;SDS011;22004;49.120;-0.200;2022-08-21T12:10:00;23.25;;;3.53;;
35909;SDS011;22004;49.120;-0.200;2022-08-21T12:12:33;15.55;;;3.22;;
35909;SDS011;22004;49.120;-0.200;2022-08-21T12:17:52;13.18;;;2.70;;
35909;SDS011;22004;49.120;-0.200;2022-08-21T12:22:50;14.73;;;2.90;;
35909;SDS011;22004;49.120;-0.200;2022-08-21T12:25:19;18.05;;;2.95;;
35909;SDS011;22004;49.120;-0.200;2022-08-21T12:27:53;13.30;;;3.05;;
35909;SDS011;22004;49.120;-0.200;2022-08-21T12:33:06;10.68;;;2.08;;
35909;SDS011;22004;49.120;-0.200;2022-08-21T12:35:44;8.27;;;2.28;;
35909;SDS011;22004;49.120;-0.200;2022-08-21T12:38:15;11.25;;;2.50;;
35909;SDS011;22004;49.120;-0.200;2022-08-21T12:40:59;13.55;;;3.05;;
35909;SDS011;22004;49.120;-0.200;2022-08-21T12:43:39;17.38;;;2.90;;
35909;SDS011;22004;49.120;-0.200;2022-08-21T12:46:15;8.80;;;2.65;;
35909;SDS011;22004;49.120;-0.200;2022-08-21T12:49:03;13.27;;;2.50;;
35909;SDS011;22004;49.120;-0.200;2022-08-21T12:51:48;18.15;;;2.55;;
35909;SDS011;22004;49.120;-0.200;2022-08-21T12:54:27;9.63;;;2.33;;
35909;SDS011;22004;49.120;-0.200;2022-08-21T12:56:56;13.43;;;3.00;;
35909;SDS011;22004;49.120;-0.200;2022-08-21T12:59:23;13.50;;;2.90;;
35909;SDS011;22004;49.120;-0.200;2022-08-21T13:01:49;25.58;;;3.30;;
35909;SDS011;22004;49.120;-0.200;2022-08-21T13:04:18;19.67;;;2.83;;
35909;SDS011;22004;49.120;-0.200;2022-08-21T13:06:48;16.55;;;3.75;;
35909;SDS011;22004;49.120;-0.200;2022-08-21T13:09:23;14.75;;;2.95;;
35909;SDS011;22004;49.120;-0.200;2022-08-21T13:11:52;16.98;;;3.22;;
35909;SDS011;22004;49.120;-0.200;2022-08-21T13:14:34;17.05;;;3.03;;
35909;SDS011;22004;49.120;-0.200;2022-08-21T13:17:03;14.03;;;3.10;;
35909;SDS011;22004;49.120;-0.200;2022-08-21T13:19:31;18.10;;;3.50;;
35909;SDS011;22004;49.120;-0.200;2022-08-21T13:21:57;17.33;;;3.05;;
35909;SDS011;22004;49.120;-0.200;2022-08-21T13:26:51;13.82;;;3.20;;
35909;SDS011;22004;49.120;-0.200;2022-08-21T13:29:19;17.17;;;3.72;;
35909;SDS011;22004;49.120;-0.200;2022-08-21T13:31:48;18.17;;;3.13;;
35909;SDS011;22004;49.120;-0.200;2022-08-21T13:34:17;18.30;;;3.25;;
35909;SDS011;22004;49.120;-0.200;2022-08-21T13:36:45;21.55;;;3.92;;
35909;SDS011;22004;49.120;-0.200;2022-08-21T13:39:16;14.57;;;2.80;;
35909;SDS011;22004;49.120;-0.200;2022-08-21T13:41:44;14.02;;;2.65;;
35909;SDS011;22004;49.120;-0.200;2022-08-21T13:44:20;17.15;;;3.40;;
35909;SDS011;22004;49.120;-0.200;2022-08-21T13:46:51;17.90;;;4.00;;
35909;SDS011;22004;49.120;-0.200;2022-08-21T13:49:18;25.50;;;3.38;;
35909;SDS011;22004;49.120;-0.200;2022-08-21T13:51:51;15.13;;;2.90;;
35909;SDS011;22004;49.120;-0.200;2022-08-21T13:54:27;19.77;;;3.72;;
35909;SDS011;22004;49.120;-0.200;2022-08-21T13:56:58;17.55;;;3.00;;
35909;SDS011;22004;49.120;-0.200;2022-08-21T13:59:25;17.00;;;3.40;;
35909;SDS011;22004;49.120;-0.200;2022-08-21T14:01:54;18.05;;;3.00;;
35909;SDS011;22004;49.120;-0.200;2022-08-21T14:04:44;11.57;;;2.85;;
35909;SDS011;22004;49.120;-0.200;2022-08-21T14:07:24;16.98;;;3.03;;
35909;SDS011;22004;49.120;-0.200;2022-08-21T14:09:55;18.02;;;3.45;;
35909;SDS011;22004;49.120;-0.200;2022-08-21T14:12:33;18.02;;;2.75;;
35909;SDS011;22004;49.120;-0.200;2022-08-21T14:15:06;14.15;;;3.22;;
35909;SDS011;22004;49.120;-0.200;2022-08-21T14:17:36;16.48;;;3.13;;
35909;SDS011;22004;49.120;-0.200;2022-08-21T14:20:04;13.35;;;2.80;;
35909;SDS011;22004;49.120;-0.200;2022-08-21T14:25:12;13.40;;;2.60;;
35909;SDS011;22004;49.120;-0.200;2022-08-21T14:27:48;20.10;;;3.63;;
35909;SDS011;22004;49.120;-0.200;2022-08-21T14:30:18;14.68;;;2.72;;
35909;SDS011;22004;49.120;-0.200;2022-08-21T14:32:53;17.90;;;3.03;;
35909;SDS011;22004;49.120;-0.200;2022-08-21T14:35:18;13.77;;;2.50;;
35909;SDS011;22004;49.120;-0.200;2022-08-21T14:37:46;17.02;;;3.40;;
35909;SDS011;22004;49.120;-0.200;2022-08-21T14:40:12;17.17;;;2.60;;
35909;SDS011;22004;49.120;-0.200;2022-08-21T14:42:37;16.45;;;3.50;;
35909;SDS011;22004;49.120;-0.200;2022-08-21T14:45:08;14.65;;;3.38;;
35909;SDS011;22004;49.120;-0.200;2022-08-21T14:47:39;16.10;;;3.30;;
35909;SDS011;22004;49.120;-0.200;2022-08-21T14:50:04;17.85;;;3.30;;
35909;SDS011;22004;49.120;-0.200;2022-08-21T14:52:30;14.75;;;3.22;;
35909;SDS011;22004;49.120;-0.200;2022-08-21T14:54:57;14.68;;;2.92;;
35909;SDS011;22004;49.120;-0.200;2022-08-21T14:57:22;16.95;;;2.75;;
35909;SDS011;22004;49.120;-0.200;2022-08-21T14:59:50;14.13;;;2.88;;
35909;SDS011;22004;49.120;-0.200;2022-08-21T15:02:15;17.20;;;3.20;;
35909;SDS011;22004;49.120;-0.200;2022-08-21T15:04:41;19.92;;;3.15;;
35909;SDS011;22004;49.120;-0.200;2022-08-21T15:07:07;16.50;;;3.42;;
35909;SDS011;22004;49.120;-0.200;2022-08-21T15:09:32;15.48;;;2.95;;
35909;SDS011;22004;49.120;-0.200;2022-08-21T15:11:58;18.70;;;4.13;;
35909;SDS011;22004;49.120;-0.200;2022-08-21T15:14:27;18.60;;;3.20;;
35909;SDS011;22004;49.120;-0.200;2022-08-21T15:16:54;17.38;;;2.78;;
35909;SDS011;22004;49.120;-0.200;2022-08-21T15:19:19;14.57;;;3.10;;
35909;SDS011;22004;49.120;-0.200;2022-08-21T15:21:44;16.70;;;2.90;;
35909;SDS011;22004;49.120;-0.200;2022-08-21T15:24:10;16.08;;;3.13;;
35909;SDS011;22004;49.120;-0.200;2022-08-21T15:26:35;13.07;;;2.92;;
35909;SDS011;22004;49.120;-0.200;2022-08-21T15:29:02;18.55;;;2.75;;
35909;SDS011;22004;49.120;-0.200;2022-08-21T15:31:29;20.05;;;4.45;;
35909;SDS011;22004;49.120;-0.200;2022-08-21T15:33:54;13.05;;;3.00;;
35909;SDS011;22004;49.120;-0.200;2022-08-21T15:36:20;14.18;;;2.88;;
35909;SDS011;22004;49.120;-0.200;2022-08-21T15:38:45;15.32;;;3.13;;
35909;SDS011;22004;49.120;-0.200;2022-08-21T15:41:11;15.60;;;2.60;;
35909;SDS011;22004;49.120;-0.200;2022-08-21T15:43:41;11.30;;;3.53;;
35909;SDS011;22004;49.120;-0.200;2022-08-21T15:46:11;17.35;;;3.35;;
35909;SDS011;22004;49.120;-0.200;2022-08-21T15:48:38;17.77;;;2.65;;
35909;SDS011;22004;49.120;-0.200;2022-08-21T15:51:03;13.60;;;2.80;;
35909;SDS011;22004;49.120;-0.200;2022-08-21T15:53:29;15.93;;;2.92;;
35909;SDS011;22004;49.120;-0.200;2022-08-21T15:55:56;11.77;;;3.13;;
35909;SDS011;22004;49.120;-0.200;2022-08-21T15:58:22;20.77;;;3.17;;
35909;SDS011;22004;49.120;-0.200;2022-08-21T16:00:48;14.52;;;3.13;;
35909;SDS011;22004;49.120;-0.200;2022-08-21T16:03:16;14.48;;;3.03;;
35909;SDS011;22004;49.120;-0.200;2022-08-21T16:05:46;9.40;;;2.50;;
35909;SDS011;22004;49.120;-0.200;2022-08-21T16:08:17;13.45;;;3.17;;
35909;SDS011;22004;49.120;-0.200;2022-08-21T16:10:43;13.88;;;2.88;;